createdAt,value
2023-02-17T00:01:13.880Z,70.72
2023-02-17T00:03:41.473Z,70.70
2023-02-17T00:06:10.551Z,70.70
2023-02-17T00:08:37.905Z,70.70
2023-02-17T00:11:05.397Z,70.70
2023-02-17T00:13:32.357Z,70.68
2023-02-17T00:15:59.560Z,70.68
2023-02-17T00:18:26.924Z,70.70
2023-02-17T00:20:53.898Z,70.71
2023-02-17T00:23:20.694Z,70.71
2023-02-17T00:25:48.033Z,70.71
2023-02-17T00:28:14.740Z,70.72
2023-02-17T00:30:41.375Z,70.70
2023-02-17T00:33:08.486Z,70.67
2023-02-17T00:35:39.764Z,70.69
2023-02-17T00:38:07.676Z,70.70
2023-02-17T00:40:34.618Z,70.72
2023-02-17T00:43:02.574Z,70.73
2023-02-17T00:45:29.377Z,70.74
2023-02-17T00:47:56.430Z,70.73
2023-02-17T00:50:23.041Z,70.72
2023-02-17T00:52:49.800Z,70.70
2023-02-17T00:55:17.127Z,70.71
2023-02-17T00:57:43.981Z,70.72
2023-02-17T01:00:11.144Z,70.73
2023-02-17T01:02:38.203Z,70.73
2023-02-17T01:05:05.478Z,70.77
2023-02-17T01:07:32.382Z,70.80
2023-02-17T01:09:59.418Z,70.82
2023-02-17T01:12:27.798Z,70.83
2023-02-17T01:14:54.433Z,70.89
2023-02-17T01:17:23.948Z,70.93
2023-02-17T01:19:51.620Z,70.93
2023-02-17T01:22:18.513Z,70.94
2023-02-17T01:24:45.434Z,70.95
2023-02-17T01:27:12.226Z,70.98
2023-02-17T01:29:38.851Z,71.03
2023-02-17T01:32:06.241Z,71.08
2023-02-17T01:34:33.173Z,71.11
2023-02-17T01:37:00.175Z,71.15
2023-02-17T01:39:27.810Z,71.15
2023-02-17T01:41:54.491Z,71.17
2023-02-17T01:44:24.282Z,71.18
2023-02-17T01:46:53.822Z,71.18
2023-02-17T01:49:38.184Z,71.18
2023-02-17T01:52:13.208Z,71.14
2023-02-17T01:54:50.190Z,71.16
2023-02-17T01:57:21.249Z,71.13
2023-02-17T01:59:49.217Z,71.15
2023-02-17T02:02:17.014Z,71.14
2023-02-17T02:04:49.532Z,71.15
2023-02-17T02:07:21.805Z,71.16
2023-02-17T02:09:56.882Z,71.16
2023-02-17T02:12:27.715Z,71.15
2023-02-17T02:15:01.804Z,71.16
2023-02-17T02:17:59.926Z,71.16
2023-02-17T02:20:49.130Z,71.13
2023-02-17T02:23:42.365Z,71.12
2023-02-17T02:26:24.665Z,71.13
2023-02-17T02:28:54.531Z,71.15
2023-02-17T02:31:52.850Z,71.10
2023-02-17T02:34:26.086Z,71.07
2023-02-17T02:37:05.628Z,71.10
2023-02-17T02:39:38.034Z,71.11
2023-02-17T02:42:08.075Z,71.13
2023-02-17T02:44:35.307Z,71.14
2023-02-17T02:47:27.338Z,71.16
2023-02-17T02:49:54.720Z,71.17
2023-02-17T02:52:45.218Z,71.20
2023-02-17T02:55:24.271Z,71.18
2023-02-17T02:58:20.256Z,71.24
2023-02-17T03:01:14.024Z,71.20
2023-02-17T03:04:04.234Z,71.24
2023-02-17T03:06:45.798Z,71.26
2023-02-17T03:09:22.482Z,71.29
2023-02-17T03:11:50.349Z,71.31
2023-02-17T03:14:20.086Z,71.36
2023-02-17T03:16:48.319Z,71.41
2023-02-17T03:19:19.029Z,71.47
2023-02-17T03:22:12.219Z,71.51
2023-02-17T03:24:39.839Z,71.47
2023-02-17T03:27:06.797Z,71.63
2023-02-17T03:29:33.632Z,71.65
2023-02-17T03:32:00.864Z,71.68
2023-02-17T03:34:27.551Z,71.71
2023-02-17T03:36:54.266Z,71.75
2023-02-17T03:39:21.328Z,71.80
2023-02-17T03:41:51.513Z,71.88
2023-02-17T03:44:18.788Z,71.97
2023-02-17T03:46:46.607Z,72.05
2023-02-17T03:49:13.454Z,72.13
2023-02-17T03:51:40.289Z,72.31
2023-02-17T03:54:07.754Z,72.40
2023-02-17T03:56:34.527Z,72.49
2023-02-17T03:59:01.166Z,72.59
2023-02-17T04:01:28.074Z,72.64
2023-02-17T04:03:55.124Z,72.73
2023-02-17T04:06:21.771Z,72.68
2023-02-17T04:08:48.501Z,72.64
2023-02-17T04:11:15.696Z,72.69
2023-02-17T04:13:42.486Z,72.79
2023-02-17T04:16:10.354Z,72.78
2023-02-17T04:18:37.785Z,72.76
2023-02-17T04:21:05.625Z,72.89
2023-02-17T04:23:32.344Z,73.04
2023-02-17T04:25:59.470Z,73.05
2023-02-17T04:28:26.412Z,73.10
2023-02-17T04:30:53.178Z,73.19
2023-02-17T04:33:20.158Z,73.23
2023-02-17T04:35:47.981Z,73.26
2023-02-17T04:38:15.109Z,73.30
2023-02-17T04:40:42.749Z,73.52
2023-02-17T04:43:09.953Z,73.68
2023-02-17T04:45:37.318Z,73.63
2023-02-17T04:48:04.444Z,73.60
2023-02-17T04:50:31.114Z,73.71
2023-02-17T04:52:57.796Z,73.96
2023-02-17T04:55:24.802Z,73.94
2023-02-17T04:57:51.470Z,73.92
2023-02-17T05:00:18.425Z,73.89
2023-02-17T05:02:45.328Z,73.86
2023-02-17T05:05:15.250Z,73.90
2023-02-17T05:07:43.266Z,73.87
2023-02-17T05:10:10.653Z,74.07
2023-02-17T05:12:38.222Z,73.99
2023-02-17T05:15:05.943Z,74.01
2023-02-17T05:17:33.027Z,74.02
2023-02-17T05:20:00.125Z,74.15
2023-02-17T05:22:27.200Z,74.08
2023-02-17T05:24:54.485Z,74.03
2023-02-17T05:27:21.386Z,74.00
2023-02-17T05:29:48.176Z,73.96
2023-02-17T05:32:15.288Z,73.97
2023-02-17T05:34:42.056Z,73.93
2023-02-17T05:37:08.753Z,73.89
2023-02-17T05:39:35.839Z,73.92
2023-02-17T05:42:02.531Z,73.90
2023-02-17T05:44:29.277Z,73.94
2023-02-17T05:46:56.491Z,74.00
2023-02-17T05:49:23.707Z,73.98
2023-02-17T05:51:50.637Z,74.02
2023-02-17T05:54:18.191Z,74.04
2023-02-17T05:56:45.138Z,74.09
2023-02-17T05:59:11.871Z,74.13
2023-02-17T06:01:38.945Z,74.18
2023-02-17T06:04:06.006Z,74.19
2023-02-17T06:06:33.286Z,74.23
2023-02-17T06:09:00.686Z,74.22
2023-02-17T06:11:28.227Z,74.24
2023-02-17T06:13:55.353Z,74.22
2023-02-17T06:16:24.870Z,74.23
2023-02-17T06:18:52.084Z,74.23
2023-02-17T06:21:19.210Z,74.32
2023-02-17T06:23:46.477Z,74.29
2023-02-17T06:26:14.954Z,74.28
2023-02-17T06:28:41.883Z,74.32
2023-02-17T06:31:09.615Z,74.34
2023-02-17T06:33:37.454Z,74.33
2023-02-17T06:36:05.543Z,74.36
2023-02-17T06:38:32.837Z,74.38
2023-02-17T06:41:01.827Z,74.48
2023-02-17T06:43:29.181Z,74.48
2023-02-17T06:45:56.397Z,74.53
2023-02-17T06:48:23.380Z,74.54
2023-02-17T06:50:50.510Z,74.50
2023-02-17T06:53:17.161Z,74.64
2023-02-17T06:55:44.964Z,74.63
2023-02-17T06:58:12.015Z,74.65
2023-02-17T07:00:38.832Z,74.62
2023-02-17T07:03:05.980Z,74.61
2023-02-17T07:05:36.179Z,74.65
2023-02-17T07:08:04.092Z,74.67
2023-02-17T07:10:31.629Z,74.66
2023-02-17T07:12:58.547Z,74.69
2023-02-17T07:15:25.439Z,74.69
2023-02-17T07:17:52.406Z,74.71
2023-02-17T07:20:19.412Z,74.74
2023-02-17T07:22:46.403Z,74.71
2023-02-17T07:25:13.744Z,74.74
2023-02-17T07:27:40.474Z,74.76
2023-02-17T07:30:07.789Z,74.86
2023-02-17T07:32:44.357Z,74.86
2023-02-17T07:35:11.148Z,74.89
2023-02-17T07:37:38.238Z,75.05
2023-02-17T07:40:05.764Z,75.09
2023-02-17T07:42:32.508Z,75.18
2023-02-17T07:44:59.506Z,75.24
2023-02-17T07:47:26.384Z,75.28
2023-02-17T07:49:53.019Z,75.27
2023-02-17T07:52:20.034Z,75.27
2023-02-17T07:54:46.981Z,75.20
2023-02-17T07:57:13.806Z,75.12
2023-02-17T07:59:40.793Z,75.09
2023-02-17T08:02:07.561Z,75.11
2023-02-17T08:04:34.627Z,75.14
2023-02-17T08:07:01.353Z,75.14
2023-02-17T08:09:47.128Z,75.09
2023-02-17T08:12:38.438Z,75.05
2023-02-17T08:15:07.833Z,75.00
2023-02-17T08:17:35.397Z,75.03
2023-02-17T08:20:08.569Z,75.04
2023-02-17T08:22:37.209Z,75.08
2023-02-17T08:25:06.191Z,75.04
2023-02-17T08:27:33.038Z,75.01
2023-02-17T08:30:00.573Z,75.03
2023-02-17T08:32:27.590Z,75.01
2023-02-17T08:34:57.576Z,74.99
2023-02-17T08:37:24.588Z,74.96
2023-02-17T08:39:51.231Z,74.97
2023-02-17T08:42:18.069Z,75.02
2023-02-17T08:44:45.380Z,75.07
2023-02-17T08:47:12.253Z,75.07
2023-02-17T08:49:40.810Z,75.06
2023-02-17T08:52:08.027Z,75.07
2023-02-17T08:54:34.753Z,75.00
2023-02-17T08:57:01.463Z,74.94
2023-02-17T08:59:28.608Z,74.91
2023-02-17T09:01:55.799Z,74.95
2023-02-17T09:04:22.551Z,74.93
2023-02-17T09:06:56.684Z,74.87
2023-02-17T09:09:27.794Z,74.88
2023-02-17T09:11:57.154Z,74.82
2023-02-17T09:14:24.098Z,74.80
2023-02-17T09:16:51.959Z,74.76
2023-02-17T09:19:19.420Z,74.71
2023-02-17T09:21:46.369Z,74.67
2023-02-17T09:24:13.178Z,74.64
2023-02-17T09:26:40.251Z,74.56
2023-02-17T09:29:08.716Z,74.51
2023-02-17T09:31:36.242Z,74.49
2023-02-17T09:34:04.359Z,74.46
2023-02-17T09:36:33.777Z,74.46
2023-02-17T09:39:01.731Z,74.44
2023-02-17T09:41:38.018Z,74.46
2023-02-17T09:44:17.260Z,74.50
2023-02-17T09:47:01.679Z,74.52
2023-02-17T09:49:41.053Z,74.50
2023-02-17T09:52:27.233Z,74.42
2023-02-17T09:54:59.556Z,74.33
2023-02-17T09:57:29.417Z,74.30
2023-02-17T10:00:02.588Z,74.21
2023-02-17T10:02:49.098Z,74.13
2023-02-17T10:05:20.111Z,74.09
2023-02-17T10:07:56.854Z,74.13
2023-02-17T10:10:34.800Z,74.13
2023-02-17T10:13:03.134Z,74.13
2023-02-17T10:15:40.705Z,74.12
2023-02-17T10:18:26.642Z,74.12
2023-02-17T10:21:25.583Z,74.03
2023-02-17T10:23:52.466Z,73.90
2023-02-17T10:26:54.794Z,73.73
2023-02-17T10:29:32.108Z,73.71
2023-02-17T10:32:19.979Z,73.61
2023-02-17T10:35:02.401Z,73.55
2023-02-17T10:37:32.342Z,73.59
2023-02-17T10:40:01.438Z,73.44
2023-02-17T10:42:34.569Z,73.39
2023-02-17T10:45:06.607Z,73.40
2023-02-17T10:47:36.853Z,73.39
2023-02-17T10:50:08.100Z,73.32
2023-02-17T10:52:40.654Z,73.16
2023-02-17T10:55:33.046Z,73.10
2023-02-17T10:58:13.819Z,73.10
2023-02-17T11:00:42.720Z,72.83
2023-02-17T11:03:24.208Z,72.65
2023-02-17T11:05:59.565Z,72.74
2023-02-17T11:08:39.254Z,72.70
2023-02-17T11:11:15.992Z,72.71
2023-02-17T11:14:01.146Z,72.58
2023-02-17T11:16:35.150Z,72.67
2023-02-17T11:19:03.713Z,72.66
2023-02-17T11:21:33.237Z,72.67
2023-02-17T11:24:05.856Z,72.58
2023-02-17T11:26:36.388Z,72.46
2023-02-17T11:29:11.537Z,72.36
2023-02-17T11:31:38.693Z,72.21
2023-02-17T11:34:13.756Z,72.07
2023-02-17T11:36:40.970Z,72.19
2023-02-17T11:39:18.515Z,72.20
2023-02-17T11:41:45.510Z,72.18
2023-02-17T11:44:15.084Z,72.15
2023-02-17T11:46:53.335Z,72.16
2023-02-17T11:50:01.412Z,72.16
2023-02-17T11:52:27.988Z,72.17
2023-02-17T11:55:19.357Z,72.16
2023-02-17T11:57:59.045Z,72.20
2023-02-17T12:00:37.246Z,72.20
2023-02-17T12:03:36.841Z,72.10
2023-02-17T12:06:09.970Z,72.07
2023-02-17T12:09:04.843Z,72.08
2023-02-17T12:11:51.714Z,72.10
2023-02-17T12:14:37.466Z,72.12
2023-02-17T12:17:06.074Z,72.13
2023-02-17T12:19:45.780Z,72.08
2023-02-17T12:22:29.297Z,72.04
2023-02-17T12:25:26.795Z,72.03
2023-02-17T12:28:07.895Z,72.07
2023-02-17T12:31:01.024Z,72.12
2023-02-17T12:34:03.891Z,72.19
2023-02-17T12:36:36.663Z,72.21
2023-02-17T12:39:13.433Z,72.22
2023-02-17T12:42:01.230Z,72.24
2023-02-17T12:44:52.616Z,72.23
2023-02-17T12:47:58.299Z,72.20
2023-02-17T12:50:32.943Z,72.19
2023-02-17T12:53:05.524Z,72.12
2023-02-17T12:55:37.922Z,72.10
2023-02-17T12:58:15.887Z,72.10
2023-02-17T13:00:46.257Z,72.01
2023-02-17T13:03:13.289Z,71.99
2023-02-17T13:05:48.109Z,72.03
2023-02-17T13:08:18.093Z,72.06
2023-02-17T13:10:44.819Z,72.04
2023-02-17T13:13:25.578Z,72.02
2023-02-17T13:16:22.486Z,72.05
2023-02-17T13:18:52.127Z,72.11
2023-02-17T13:21:23.368Z,72.13
2023-02-17T13:24:07.066Z,72.13
2023-02-17T13:26:36.467Z,72.08
2023-02-17T13:29:32.181Z,72.10
2023-02-17T13:32:04.761Z,72.13
2023-02-17T13:34:42.459Z,72.17
2023-02-17T13:37:15.975Z,72.22
2023-02-17T13:39:43.041Z,72.28
2023-02-17T13:42:28.768Z,72.27
2023-02-17T13:44:55.554Z,72.26
2023-02-17T13:47:37.899Z,72.25
2023-02-17T13:50:05.145Z,72.25
2023-02-17T13:52:32.689Z,72.21
2023-02-17T13:55:02.292Z,72.20
2023-02-17T13:57:31.747Z,72.25
2023-02-17T14:00:09.260Z,72.36
2023-02-17T14:02:45.587Z,72.41
2023-02-17T14:05:30.549Z,72.54
2023-02-17T14:08:03.292Z,72.55
2023-02-17T14:10:30.845Z,72.63
2023-02-17T14:12:57.608Z,72.69
2023-02-17T14:15:28.230Z,72.74
2023-02-17T14:17:55.629Z,72.79
2023-02-17T14:20:25.109Z,72.79
2023-02-17T14:23:13.252Z,72.80
2023-02-17T14:25:44.861Z,72.76
2023-02-17T14:28:38.157Z,72.85
2023-02-17T14:31:12.358Z,72.80
2023-02-17T14:33:39.176Z,72.88
2023-02-17T14:36:09.201Z,72.94
2023-02-17T14:38:40.516Z,72.98
2023-02-17T14:41:11.769Z,73.01
2023-02-17T14:43:38.478Z,73.05
2023-02-17T14:46:05.737Z,73.09
2023-02-17T14:48:32.906Z,73.12
2023-02-17T14:51:00.018Z,73.18
2023-02-17T14:53:29.565Z,73.21
2023-02-17T14:56:01.510Z,73.24
2023-02-17T14:58:29.381Z,73.29
2023-02-17T15:00:56.720Z,73.35
2023-02-17T15:03:23.800Z,73.38
2023-02-17T15:05:50.901Z,73.42
2023-02-17T15:08:28.001Z,73.45
2023-02-17T15:10:55.089Z,73.46
2023-02-17T15:13:22.486Z,73.52
2023-02-17T15:15:49.753Z,73.56
2023-02-17T15:18:18.942Z,73.60
2023-02-17T15:20:50.097Z,73.63
2023-02-17T15:23:19.748Z,73.66
2023-02-17T15:25:48.275Z,73.72
2023-02-17T15:28:16.896Z,73.76
2023-02-17T15:30:51.271Z,73.80
2023-02-17T15:33:18.654Z,73.86
2023-02-17T15:35:50.984Z,73.94
2023-02-17T15:38:17.898Z,74.03
2023-02-17T15:40:44.632Z,74.14
2023-02-17T15:43:15.166Z,74.27
2023-02-17T15:45:42.318Z,74.42
2023-02-17T15:48:14.312Z,74.62
2023-02-17T15:50:40.975Z,74.78
2023-02-17T15:53:07.904Z,74.97
2023-02-17T15:55:34.848Z,75.12
2023-02-17T15:58:06.034Z,75.30
2023-02-17T16:00:35.601Z,75.46
2023-02-17T16:03:03.315Z,75.65
2023-02-17T16:05:30.941Z,75.85
2023-02-17T16:07:58.107Z,76.01
2023-02-17T16:10:29.801Z,76.20
2023-02-17T16:13:00.067Z,76.36
2023-02-17T16:15:31.023Z,76.51
2023-02-17T16:17:58.962Z,76.65
2023-02-17T16:20:35.216Z,76.79
2023-02-17T16:23:03.052Z,76.91
2023-02-17T16:25:30.166Z,77.03
2023-02-17T16:27:57.822Z,77.19
2023-02-17T16:30:30.497Z,77.33
2023-02-17T16:32:57.836Z,77.45
2023-02-17T16:35:28.103Z,77.59
2023-02-17T16:38:02.049Z,77.69
2023-02-17T16:40:31.981Z,77.71
2023-02-17T16:42:58.744Z,77.86
2023-02-17T16:45:29.290Z,77.97
2023-02-17T16:48:00.439Z,78.05
2023-02-17T16:50:35.087Z,78.11
2023-02-17T16:53:06.015Z,78.09
2023-02-17T16:55:34.716Z,78.25
2023-02-17T16:58:02.724Z,78.35
2023-02-17T17:00:32.434Z,78.40
2023-02-17T17:02:59.728Z,78.47
2023-02-17T17:05:29.501Z,78.55
2023-02-17T17:07:57.404Z,78.58
2023-02-17T17:10:27.762Z,78.65
2023-02-17T17:12:54.458Z,78.71
2023-02-17T17:15:22.144Z,78.75
2023-02-17T17:17:48.725Z,78.86
2023-02-17T17:20:18.275Z,78.95
2023-02-17T17:22:46.709Z,79.03
2023-02-17T17:25:14.570Z,79.10
2023-02-17T17:27:41.817Z,79.17
2023-02-17T17:30:16.282Z,79.23
2023-02-17T17:32:43.131Z,79.21
2023-02-17T17:35:10.167Z,79.31
2023-02-17T17:37:39.369Z,79.37
2023-02-17T17:40:07.477Z,79.43
2023-02-17T17:42:37.598Z,79.52
2023-02-17T17:45:04.708Z,79.60
2023-02-17T17:47:32.088Z,79.67
2023-02-17T17:49:59.222Z,79.72
2023-02-17T17:52:26.120Z,79.77
2023-02-17T17:54:52.807Z,79.84
2023-02-17T17:57:19.685Z,79.88
2023-02-17T17:59:46.308Z,79.96
2023-02-17T18:02:12.948Z,80.00
2023-02-17T18:04:39.863Z,80.08
2023-02-17T18:07:06.835Z,80.15
2023-02-17T18:09:38.071Z,80.17
2023-02-17T18:12:11.069Z,80.21
2023-02-17T18:14:40.128Z,80.25
2023-02-17T18:17:09.700Z,80.30
2023-02-17T18:19:36.580Z,80.32
2023-02-17T18:22:03.277Z,80.36
2023-02-17T18:24:30.461Z,80.41
2023-02-17T18:26:57.301Z,80.46
2023-02-17T18:29:24.197Z,80.51
2023-02-17T18:31:51.256Z,80.57
2023-02-17T18:34:17.932Z,80.63
2023-02-17T18:36:45.264Z,80.65
2023-02-17T18:39:12.416Z,80.71
2023-02-17T18:41:39.127Z,80.72
2023-02-17T18:44:06.110Z,80.76
2023-02-17T18:46:33.482Z,80.79
2023-02-17T18:49:00.506Z,80.80
2023-02-17T18:51:27.798Z,80.84
2023-02-17T18:53:56.783Z,80.84
2023-02-17T18:56:26.230Z,80.87
2023-02-17T18:58:55.303Z,80.88
2023-02-17T19:01:23.804Z,80.90
2023-02-17T19:03:51.853Z,80.98
2023-02-17T19:06:23.839Z,81.03
2023-02-17T19:08:51.530Z,81.07
2023-02-17T19:11:19.887Z,81.12
2023-02-17T19:13:46.812Z,81.17
2023-02-17T19:16:25.512Z,81.20
2023-02-17T19:18:52.674Z,81.17
2023-02-17T19:21:20.588Z,81.25
2023-02-17T19:23:48.336Z,81.26
2023-02-17T19:26:16.830Z,81.30
2023-02-17T19:28:44.729Z,81.30
2023-02-17T19:31:17.558Z,81.33
2023-02-17T19:33:45.738Z,81.32
2023-02-17T19:36:15.792Z,81.36
2023-02-17T19:38:43.364Z,81.39
2023-02-17T19:41:11.905Z,81.41
2023-02-17T19:43:40.553Z,81.42
2023-02-17T19:46:07.986Z,81.42
2023-02-17T19:48:35.201Z,81.42
2023-02-17T19:51:04.630Z,81.43
2023-02-17T19:53:33.789Z,81.44
2023-02-17T19:56:13.014Z,81.45
2023-02-17T19:58:41.419Z,81.47
2023-02-17T20:01:14.414Z,81.52
2023-02-17T20:03:42.200Z,81.54
2023-02-17T20:06:25.701Z,81.55
2023-02-17T20:08:59.648Z,81.53
2023-02-17T20:11:27.727Z,81.55
2023-02-17T20:13:56.708Z,81.56
2023-02-17T20:16:23.503Z,81.58
2023-02-17T20:18:51.104Z,81.56
2023-02-17T20:21:21.778Z,81.57
2023-02-17T20:23:48.950Z,81.58
2023-02-17T20:26:19.951Z,81.60
2023-02-17T20:28:47.958Z,81.64
2023-02-17T20:31:15.416Z,81.64
2023-02-17T20:33:42.154Z,81.65
2023-02-17T20:36:12.100Z,81.66
2023-02-17T20:38:41.256Z,81.66
2023-02-17T20:41:09.993Z,81.72
2023-02-17T20:43:38.540Z,81.77
2023-02-17T20:46:06.071Z,81.80
2023-02-17T20:48:33.516Z,81.83
2023-02-17T20:51:00.714Z,81.84
2023-02-17T20:53:27.448Z,81.90
2023-02-17T20:55:54.254Z,81.93
2023-02-17T20:58:21.477Z,81.97
2023-02-17T21:00:48.634Z,81.99
2023-02-17T21:03:15.658Z,82.02
2023-02-17T21:05:42.717Z,82.06
2023-02-17T21:08:09.755Z,82.07
2023-02-17T21:10:36.570Z,82.11
2023-02-17T21:13:03.577Z,82.12
2023-02-17T21:15:30.253Z,82.13
2023-02-17T21:17:56.938Z,82.16
2023-02-17T21:20:23.993Z,82.18
2023-02-17T21:22:51.229Z,82.20
2023-02-17T21:25:17.945Z,82.20
2023-02-17T21:27:44.912Z,82.21
2023-02-17T21:30:12.757Z,82.25
2023-02-17T21:32:39.547Z,82.29
2023-02-17T21:35:10.619Z,82.30
2023-02-17T21:37:38.964Z,82.32
2023-02-17T21:40:11.281Z,82.33
2023-02-17T21:42:58.317Z,82.33
2023-02-17T21:45:25.701Z,82.34
2023-02-17T21:47:53.568Z,82.37
2023-02-17T21:50:23.257Z,82.43
2023-02-17T21:52:50.650Z,82.49
2023-02-17T21:55:17.698Z,82.52
2023-02-17T21:57:44.438Z,82.55
2023-02-17T22:00:12.917Z,82.58
2023-02-17T22:02:39.999Z,82.61
2023-02-17T22:05:08.833Z,82.64
2023-02-17T22:07:35.682Z,82.67
2023-02-17T22:10:03.834Z,82.69
2023-02-17T22:12:30.783Z,82.71
2023-02-17T22:14:57.526Z,82.75
2023-02-17T22:17:24.188Z,82.78
2023-02-17T22:19:51.200Z,82.80
2023-02-17T22:22:17.809Z,82.85
2023-02-17T22:24:44.565Z,82.90
2023-02-17T22:27:11.592Z,82.93
2023-02-17T22:29:38.262Z,82.93
2023-02-17T22:32:05.213Z,82.96
2023-02-17T22:34:32.419Z,82.97
2023-02-17T22:36:59.077Z,83.01
2023-02-17T22:39:25.750Z,83.03
2023-02-17T22:41:52.711Z,83.07
2023-02-17T22:44:19.423Z,83.08
2023-02-17T22:46:46.110Z,83.11
2023-02-17T22:49:13.273Z,83.15
2023-02-17T22:51:40.554Z,83.20
2023-02-17T22:54:07.865Z,83.21
2023-02-17T22:56:35.310Z,83.24
2023-02-17T22:59:03.970Z,83.24
2023-02-17T23:01:33.158Z,83.27
2023-02-17T23:04:00.683Z,83.30
2023-02-17T23:06:31.909Z,83.32
2023-02-17T23:08:59.495Z,83.34
2023-02-17T23:11:48.980Z,83.36
2023-02-17T23:14:23.203Z,83.37
2023-02-17T23:16:50.668Z,83.39
2023-02-17T23:19:20.617Z,83.39
2023-02-17T23:21:52.944Z,83.43
2023-02-17T23:24:20.964Z,83.43
2023-02-17T23:26:48.238Z,83.43
2023-02-17T23:29:16.264Z,83.45
2023-02-17T23:31:49.599Z,83.44
2023-02-17T23:34:16.712Z,83.45
2023-02-17T23:36:45.481Z,83.46
2023-02-17T23:39:13.302Z,83.49
2023-02-17T23:41:40.339Z,83.50
2023-02-17T23:44:09.621Z,83.52
2023-02-17T23:46:36.593Z,83.52
2023-02-17T23:49:03.442Z,83.55
2023-02-17T23:51:30.467Z,83.56
2023-02-17T23:53:57.146Z,83.59
2023-02-17T23:56:34.985Z,83.59
2023-02-17T23:59:02.597Z,83.63
